Sumisemaru No.5 — JE3162 — position and weather

sailwx.info

Track history (hours):
 
Tides and Currents Weather Stations Pressure Air Temp Water Temp Dewpoint Dewpoint Depression Visibility Wind Speed Wind Dir Waves Ship Positions

Sumisemaru No.5

Last reported at 2017-Dec-09 14:23 UTC. Time now 2017-Dec-11 06:01 UTC.
Position N 41°10' E 141°32'.

Length 96 m; draft 5.7 m.

Type: Cargo ship. MMSI: 431700423.

Date/timePositionNaut miles runAvg speedWind from/ knotsBaromVisibWave heightAir tempDewpointWater temp
2017-Dec-09 14:23N 41°10' E 141°32'513.2
2017-Dec-09 14:00N 41°15' E 141°32'1013.1
2017-Dec-09 13:15N 41°24' E 141°32'313.2
2017-Dec-09 13:00N 41°27' E 141°30'713.4
2017-Dec-09 12:30N 41°31' E 141°23'714.8
2017-Dec-09 12:01N 41°32' E 141°13'714.8
2017-Dec-09 11:30N 41°34' E 141°03'713.8
2017-Dec-09 11:00N 41°36' E 140°54'713.3
2017-Dec-09 10:30N 41°33' E 140°47'714.1
2017-Dec-09 10:00N 41°28' E 140°39'  
2017-Dec-04 10:09N 41°25' E 140°28'211.2
2017-Dec-04 09:57N 41°26' E 140°30'511.1
2017-Dec-04 09:30N 41°29' E 140°36'612.7
2017-Dec-04 09:00N 41°34' E 140°41'612.5
2017-Dec-04 08:31N 41°38' E 140°48'612.5
2017-Dec-04 08:00N 41°37' E 140°56'612.6
2017-Dec-04 07:30N 41°34' E 141°03'611.9
2017-Dec-04 07:00N 41°31' E 141°10'612.5
2017-Dec-04 06:31N 41°28' E 141°18'712.8
2017-Dec-04 06:00N 41°25' E 141°25'1 0.1
2017-Dec-03 23:19N 41°25' E 141°26'1 3.8
2017-Dec-03 23:00N 41°25' E 141°24'0 0.1
2017-Dec-03 16:05N 41°25' E 141°24'0 0.1
2017-Dec-03 15:53N 41°25' E 141°24'0 0.0
2017-Dec-03 15:23N 41°25' E 141°24'0 0.0
2017-Dec-03 14:53N 41°25' E 141°24'0 0.0
2017-Dec-03 13:38N 41°25' E 141°24'0 0.1
2017-Dec-03 13:05N 41°25' E 141°24'0 0.5
2017-Dec-03 12:59N 41°25' E 141°24'0 0.1
2017-Dec-03 12:14N 41°25' E 141°24'0 0.0
2017-Dec-03 11:59N 41°25' E 141°24'0 0.0
2017-Dec-03 11:23N 41°25' E 141°24'0 0.1
2017-Dec-03 10:59N 41°25' E 141°24'0 0.0
2017-Dec-03 10:14N 41°25' E 141°24'0 0.0
2017-Dec-03 09:59N 41°25' E 141°24'0 0.0
2017-Dec-03 09:17N 41°25' E 141°24'0 0.0
2017-Dec-03 08:23N 41°25' E 141°24'0 0.0
2017-Dec-03 07:54N 41°25' E 141°24'1 2.8
2017-Dec-03 07:30N 41°26' E 141°25'3611.0
2017-Dec-03 04:14N 40°51' E 141°33'412.6
2017-Dec-03 03:55N 40°47' E 141°33'22 1.7
2017-Dec-02 15:25N 41°09' E 141°32'512.3
2017-Dec-02 15:00N 41°14' E 141°32'1113.0
2017-Dec-02 14:11N 41°24' E 141°32'213.2
2017-Dec-02 14:00N 41°27' E 141°32'713.5
2017-Dec-02 13:28N 41°34' E 141°32'613.6
2017-Dec-02 13:00N 41°36' E 141°24'815.2
2017-Dec-02 12:30N 41°36' E 141°14'815.1
2017-Dec-02 12:00N 41°35' E 141°04'815.3
2017-Dec-02 11:30N 41°36' E 140°54'815.7
2017-Dec-02 11:01N 41°32' E 140°45'815.4
2017-Dec-02 10:30N 41°28' E 140°36'915.8
2017-Dec-02 09:57N 41°23' E 140°27'  
Track history (hours):
 
Tides and Currents Weather Stations Pressure Air Temp Water Temp Dewpoint Dewpoint Depression Visibility Wind Speed Wind Dir Waves Ship Positions

Sumisemaru No.5

Last reported at 2017-Dec-09 14:23 UTC. Time now 2017-Dec-11 06:01 UTC.
Position N 41°10' E 141°32'.

Length 96 m; draft 5.7 m.

Type: Cargo ship. MMSI: 431700423.

Date/timePositionNaut miles runAvg speedWind from/ knotsBaromVisibWave heightAir tempDewpointWater temp
2017-Dec-09 14:23N 41°10' E 141°32'513.2
2017-Dec-09 14:00N 41°15' E 141°32'1013.1
2017-Dec-09 13:15N 41°24' E 141°32'313.2
2017-Dec-09 13:00N 41°27' E 141°30'713.4
2017-Dec-09 12:30N 41°31' E 141°23'714.8
2017-Dec-09 12:01N 41°32' E 141°13'714.8
2017-Dec-09 11:30N 41°34' E 141°03'713.8
2017-Dec-09 11:00N 41°36' E 140°54'713.3
2017-Dec-09 10:30N 41°33' E 140°47'714.1
2017-Dec-09 10:00N 41°28' E 140°39'  
2017-Dec-04 10:09N 41°25' E 140°28'211.2
2017-Dec-04 09:57N 41°26' E 140°30'511.1
2017-Dec-04 09:30N 41°29' E 140°36'612.7
2017-Dec-04 09:00N 41°34' E 140°41'612.5
2017-Dec-04 08:31N 41°38' E 140°48'612.5
2017-Dec-04 08:00N 41°37' E 140°56'612.6
2017-Dec-04 07:30N 41°34' E 141°03'611.9
2017-Dec-04 07:00N 41°31' E 141°10'612.5
2017-Dec-04 06:31N 41°28' E 141°18'712.8
2017-Dec-04 06:00N 41°25' E 141°25'1 0.1
2017-Dec-03 23:19N 41°25' E 141°26'1 3.8
2017-Dec-03 23:00N 41°25' E 141°24'0 0.1
2017-Dec-03 16:05N 41°25' E 141°24'0 0.1
2017-Dec-03 15:53N 41°25' E 141°24'0 0.0
2017-Dec-03 15:23N 41°25' E 141°24'0 0.0
2017-Dec-03 14:53N 41°25' E 141°24'0 0.0
2017-Dec-03 13:38N 41°25' E 141°24'0 0.1
2017-Dec-03 13:05N 41°25' E 141°24'0 0.5
2017-Dec-03 12:59N 41°25' E 141°24'0 0.1
2017-Dec-03 12:14N 41°25' E 141°24'0 0.0
2017-Dec-03 11:59N 41°25' E 141°24'0 0.0
2017-Dec-03 11:23N 41°25' E 141°24'0 0.1
2017-Dec-03 10:59N 41°25' E 141°24'0 0.0
2017-Dec-03 10:14N 41°25' E 141°24'0 0.0
2017-Dec-03 09:59N 41°25' E 141°24'0 0.0
2017-Dec-03 09:17N 41°25' E 141°24'0 0.0
2017-Dec-03 08:23N 41°25' E 141°24'0 0.0
2017-Dec-03 07:54N 41°25' E 141°24'1 2.8
2017-Dec-03 07:30N 41°26' E 141°25'3611.0
2017-Dec-03 04:14N 40°51' E 141°33'412.6
2017-Dec-03 03:55N 40°47' E 141°33'22 1.7
2017-Dec-02 15:25N 41°09' E 141°32'512.3
2017-Dec-02 15:00N 41°14' E 141°32'1113.0
2017-Dec-02 14:11N 41°24' E 141°32'213.2
2017-Dec-02 14:00N 41°27' E 141°32'713.5
2017-Dec-02 13:28N 41°34' E 141°32'613.6
2017-Dec-02 13:00N 41°36' E 141°24'815.2
2017-Dec-02 12:30N 41°36' E 141°14'815.1
2017-Dec-02 12:00N 41°35' E 141°04'815.3
2017-Dec-02 11:30N 41°36' E 140°54'815.7
2017-Dec-02 11:01N 41°32' E 140°45'815.4
2017-Dec-02 10:30N 41°28' E 140°36'915.8
2017-Dec-02 09:57N 41°23' E 140°27'  

Dump ship's entire track history